sensor_id;sensor_type;location;lat;lon;timestamp;pressure;altitude;pressure_sealevel;temperature;humidity
55171;BME280;41060;47.510;8.680;2023-05-03T00:02:05;97697.75;;;15.84;46.76
55171;BME280;41060;47.510;8.680;2023-05-03T00:04:33;97687.66;;;15.78;46.81
55171;BME280;41060;47.510;8.680;2023-05-03T00:06:59;97688.63;;;15.77;46.62
55171;BME280;41060;47.510;8.680;2023-05-03T00:09:27;97694.81;;;15.78;46.42
55171;BME280;41060;47.510;8.680;2023-05-03T00:11:53;97680.34;;;15.70;46.69
55171;BME280;41060;47.510;8.680;2023-05-03T00:14:20;97691.44;;;15.76;46.48
55171;BME280;41060;47.510;8.680;2023-05-03T00:16:47;97700.41;;;15.74;46.58
55171;BME280;41060;47.510;8.680;2023-05-03T00:19:13;97677.25;;;15.65;46.99
55171;BME280;41060;47.510;8.680;2023-05-03T00:21:41;97673.75;;;15.65;46.66
55171;BME280;41060;47.510;8.680;2023-05-03T00:24:08;97688.75;;;15.56;47.24
55171;BME280;41060;47.510;8.680;2023-05-03T00:26:34;97688.47;;;15.50;47.42
55171;BME280;41060;47.510;8.680;2023-05-03T00:29:01;97684.09;;;15.58;47.15
55171;BME280;41060;47.510;8.680;2023-05-03T00:31:28;97681.44;;;15.49;46.98
55171;BME280;41060;47.510;8.680;2023-05-03T00:33:55;97682.69;;;15.45;47.02
55171;BME280;41060;47.510;8.680;2023-05-03T00:36:21;97677.06;;;15.38;47.25
55171;BME280;41060;47.510;8.680;2023-05-03T00:38:50;97674.25;;;15.30;47.29
55171;BME280;41060;47.510;8.680;2023-05-03T00:41:16;97677.47;;;15.24;47.33
55171;BME280;41060;47.510;8.680;2023-05-03T00:43:43;97668.84;;;15.11;47.55
55171;BME280;41060;47.510;8.680;2023-05-03T00:46:10;97669.94;;;14.99;47.92
55171;BME280;41060;47.510;8.680;2023-05-03T00:48:36;97670.31;;;14.84;48.40
55171;BME280;41060;47.510;8.680;2023-05-03T00:51:04;97674.19;;;14.71;48.89
55171;BME280;41060;47.510;8.680;2023-05-03T00:53:34;97675.41;;;14.57;48.75
55171;BME280;41060;47.510;8.680;2023-05-03T00:56:02;97673.75;;;14.14;49.59
55171;BME280;41060;47.510;8.680;2023-05-03T00:58:30;97673.78;;;14.03;49.99
55171;BME280;41060;47.510;8.680;2023-05-03T01:00:58;97671.91;;;13.94;50.50
55171;BME280;41060;47.510;8.680;2023-05-03T01:03:25;97670.47;;;13.90;50.42
55171;BME280;41060;47.510;8.680;2023-05-03T01:05:58;97669.91;;;14.07;49.75
55171;BME280;41060;47.510;8.680;2023-05-03T01:08:34;97669.47;;;14.23;49.14
55171;BME280;41060;47.510;8.680;2023-05-03T01:11:10;97668.81;;;14.31;48.86
55171;BME280;41060;47.510;8.680;2023-05-03T01:13:46;97675.19;;;14.39;48.63
55171;BME280;41060;47.510;8.680;2023-05-03T01:16:21;97673.81;;;14.45;48.35
55171;BME280;41060;47.510;8.680;2023-05-03T01:18:52;97679.50;;;14.40;48.45
55171;BME280;41060;47.510;8.680;2023-05-03T01:21:25;97671.19;;;14.34;48.71
55171;BME280;41060;47.510;8.680;2023-05-03T01:23:56;97672.78;;;14.36;48.15
55171;BME280;41060;47.510;8.680;2023-05-03T01:26:26;97674.41;;;14.28;48.55
55171;BME280;41060;47.510;8.680;2023-05-03T01:28:54;97659.47;;;14.15;48.76
55171;BME280;41060;47.510;8.680;2023-05-03T01:31:26;97663.84;;;14.16;48.87
55171;BME280;41060;47.510;8.680;2023-05-03T01:34:13;97669.78;;;14.30;48.35
55171;BME280;41060;47.510;8.680;2023-05-03T01:36:43;97658.78;;;14.44;48.21
55171;BME280;41060;47.510;8.680;2023-05-03T01:39:16;97656.31;;;14.52;47.71
55171;BME280;41060;47.510;8.680;2023-05-03T01:41:45;97658.00;;;14.53;47.69
55171;BME280;41060;47.510;8.680;2023-05-03T01:44:15;97655.16;;;14.54;47.71
55171;BME280;41060;47.510;8.680;2023-05-03T01:46:43;97652.19;;;14.48;47.37
55171;BME280;41060;47.510;8.680;2023-05-03T01:49:09;97653.03;;;14.48;47.56
55171;BME280;41060;47.510;8.680;2023-05-03T01:51:37;97658.97;;;14.52;47.00
55171;BME280;41060;47.510;8.680;2023-05-03T01:54:03;97647.47;;;14.51;47.38
55171;BME280;41060;47.510;8.680;2023-05-03T01:56:33;97655.34;;;14.53;48.13
55171;BME280;41060;47.510;8.680;2023-05-03T01:59:01;97651.69;;;14.54;48.42
55171;BME280;41060;47.510;8.680;2023-05-03T02:01:28;97657.50;;;14.38;49.22
55171;BME280;41060;47.510;8.680;2023-05-03T02:03:54;97652.38;;;14.26;49.92
55171;BME280;41060;47.510;8.680;2023-05-03T02:06:23;97637.19;;;14.16;49.84
55171;BME280;41060;47.510;8.680;2023-05-03T02:08:53;97647.50;;;14.31;50.06
55171;BME280;41060;47.510;8.680;2023-05-03T02:11:19;97650.19;;;14.31;50.36
55171;BME280;41060;47.510;8.680;2023-05-03T02:13:48;97640.22;;;14.33;50.18
55171;BME280;41060;47.510;8.680;2023-05-03T02:16:16;97642.75;;;14.34;49.97
55171;BME280;41060;47.510;8.680;2023-05-03T02:18:42;97648.91;;;14.35;50.09
55171;BME280;41060;47.510;8.680;2023-05-03T02:21:10;97621.66;;;14.22;50.22
55171;BME280;41060;47.510;8.680;2023-05-03T02:23:37;97654.75;;;14.49;50.27
55171;BME280;41060;47.510;8.680;2023-05-03T02:26:03;97661.50;;;14.53;50.03
55171;BME280;41060;47.510;8.680;2023-05-03T02:28:31;97655.03;;;14.56;50.28
55171;BME280;41060;47.510;8.680;2023-05-03T02:30:58;97654.91;;;14.57;50.01
55171;BME280;41060;47.510;8.680;2023-05-03T02:33:26;97656.47;;;14.60;50.39
55171;BME280;41060;47.510;8.680;2023-05-03T02:35:55;97658.84;;;14.53;50.53
55171;BME280;41060;47.510;8.680;2023-05-03T02:38:22;97661.50;;;14.33;51.17
55171;BME280;41060;47.510;8.680;2023-05-03T02:40:49;97661.91;;;14.07;52.32
55171;BME280;41060;47.510;8.680;2023-05-03T02:43:16;97661.44;;;13.81;52.54
55171;BME280;41060;47.510;8.680;2023-05-03T02:45:42;97662.34;;;13.50;53.54
55171;BME280;41060;47.510;8.680;2023-05-03T02:48:09;97661.22;;;13.53;53.59
55171;BME280;41060;47.510;8.680;2023-05-03T02:50:37;97658.94;;;13.48;54.02
55171;BME280;41060;47.510;8.680;2023-05-03T02:53:04;97654.31;;;13.18;53.81
55171;BME280;41060;47.510;8.680;2023-05-03T02:55:31;97659.81;;;13.06;54.45
55171;BME280;41060;47.510;8.680;2023-05-03T02:57:58;97660.00;;;12.91;54.85
55171;BME280;41060;47.510;8.680;2023-05-03T03:00:25;97648.94;;;12.75;55.19
55171;BME280;41060;47.510;8.680;2023-05-03T03:02:52;97640.38;;;12.83;55.32
55171;BME280;41060;47.510;8.680;2023-05-03T03:05:19;97655.81;;;12.89;55.02
55171;BME280;41060;47.510;8.680;2023-05-03T03:07:47;97655.56;;;12.70;54.89
55171;BME280;41060;47.510;8.680;2023-05-03T03:10:13;97650.28;;;12.47;55.54
55171;BME280;41060;47.510;8.680;2023-05-03T03:12:43;97655.84;;;12.67;56.01
55171;BME280;41060;47.510;8.680;2023-05-03T03:15:10;97659.56;;;12.86;54.96
55171;BME280;41060;47.510;8.680;2023-05-03T03:17:37;97657.38;;;12.80;54.34
55171;BME280;41060;47.510;8.680;2023-05-03T03:20:05;97653.66;;;12.49;56.00
55171;BME280;41060;47.510;8.680;2023-05-03T03:22:35;97661.38;;;12.75;54.50
55171;BME280;41060;47.510;8.680;2023-05-03T03:25:07;97635.53;;;12.65;53.76
55171;BME280;41060;47.510;8.680;2023-05-03T03:27:34;97655.56;;;12.70;54.05
55171;BME280;41060;47.510;8.680;2023-05-03T03:30:00;97663.06;;;12.42;54.28
55171;BME280;41060;47.510;8.680;2023-05-03T03:32:27;97655.47;;;12.38;54.73
55171;BME280;41060;47.510;8.680;2023-05-03T03:34:54;97668.72;;;12.26;54.88
55171;BME280;41060;47.510;8.680;2023-05-03T03:37:20;97665.59;;;12.33;54.90
55171;BME280;41060;47.510;8.680;2023-05-03T03:39:47;97663.53;;;12.25;54.89
55171;BME280;41060;47.510;8.680;2023-05-03T03:42:16;97672.59;;;12.34;54.84
55171;BME280;41060;47.510;8.680;2023-05-03T03:44:43;97666.56;;;12.20;55.02
55171;BME280;41060;47.510;8.680;2023-05-03T03:47:09;97668.56;;;11.95;56.30
55171;BME280;41060;47.510;8.680;2023-05-03T03:49:36;97657.00;;;12.07;55.02
55171;BME280;41060;47.510;8.680;2023-05-03T03:52:06;97665.47;;;12.23;54.59
55171;BME280;41060;47.510;8.680;2023-05-03T03:54:32;97671.25;;;12.06;55.38
55171;BME280;41060;47.510;8.680;2023-05-03T03:57:00;97673.78;;;12.07;55.37
55171;BME280;41060;47.510;8.680;2023-05-03T03:59:28;97675.91;;;11.91;55.21
55171;BME280;41060;47.510;8.680;2023-05-03T04:01:55;97678.59;;;12.02;54.96
55171;BME280;41060;47.510;8.680;2023-05-03T04:04:22;97669.81;;;12.13;54.45
55171;BME280;41060;47.510;8.680;2023-05-03T04:06:49;97670.44;;;12.16;54.78
55171;BME280;41060;47.510;8.680;2023-05-03T04:09:15;97680.94;;;12.29;54.23
55171;BME280;41060;47.510;8.680;2023-05-03T04:11:43;97671.66;;;12.57;53.29
55171;BME280;41060;47.510;8.680;2023-05-03T04:14:10;97671.06;;;12.76;53.01
55171;BME280;41060;47.510;8.680;2023-05-03T04:16:37;97682.84;;;12.94;52.43
55171;BME280;41060;47.510;8.680;2023-05-03T04:19:05;97677.78;;;13.02;52.16
55171;BME280;41060;47.510;8.680;2023-05-03T04:21:31;97685.28;;;13.08;51.54
55171;BME280;41060;47.510;8.680;2023-05-03T04:23:58;97678.03;;;12.88;51.90
55171;BME280;41060;47.510;8.680;2023-05-03T04:26:26;97688.31;;;12.81;52.35
55171;BME280;41060;47.510;8.680;2023-05-03T04:28:53;97688.19;;;12.72;52.67
55171;BME280;41060;47.510;8.680;2023-05-03T04:31:22;97688.69;;;12.65;52.79
55171;BME280;41060;47.510;8.680;2023-05-03T04:33:51;97677.66;;;12.25;53.81
55171;BME280;41060;47.510;8.680;2023-05-03T04:36:17;97695.97;;;12.06;54.68
55171;BME280;41060;47.510;8.680;2023-05-03T04:38:47;97692.47;;;11.95;55.31
55171;BME280;41060;47.510;8.680;2023-05-03T04:41:14;97689.56;;;11.74;55.55
55171;BME280;41060;47.510;8.680;2023-05-03T04:43:41;97690.53;;;11.73;55.59
55171;BME280;41060;47.510;8.680;2023-05-03T04:46:12;97665.97;;;11.82;55.32
55171;BME280;41060;47.510;8.680;2023-05-03T04:48:39;97695.03;;;12.18;54.82
55171;BME280;41060;47.510;8.680;2023-05-03T04:51:07;97701.38;;;12.05;55.03
55171;BME280;41060;47.510;8.680;2023-05-03T04:53:33;97705.16;;;12.13;55.02
55171;BME280;41060;47.510;8.680;2023-05-03T04:56:01;97693.22;;;12.19;54.76
55171;BME280;41060;47.510;8.680;2023-05-03T04:58:27;97703.03;;;12.30;54.97
55171;BME280;41060;47.510;8.680;2023-05-03T05:00:54;97701.94;;;12.43;54.56
55171;BME280;41060;47.510;8.680;2023-05-03T05:03:21;97709.41;;;12.27;55.09
55171;BME280;41060;47.510;8.680;2023-05-03T05:05:47;97709.09;;;12.54;54.30
55171;BME280;41060;47.510;8.680;2023-05-03T05:08:15;97701.72;;;12.57;54.36
55171;BME280;41060;47.510;8.680;2023-05-03T05:10:42;97710.41;;;12.82;53.68
55171;BME280;41060;47.510;8.680;2023-05-03T05:13:09;97718.88;;;12.76;53.74
55171;BME280;41060;47.510;8.680;2023-05-03T05:15:35;97681.91;;;12.73;53.30
55171;BME280;41060;47.510;8.680;2023-05-03T05:18:02;97722.50;;;12.97;53.38
55171;BME280;41060;47.510;8.680;2023-05-03T05:20:29;97723.81;;;12.91;53.99
55171;BME280;41060;47.510;8.680;2023-05-03T05:22:55;97731.66;;;12.71;54.31
55171;BME280;41060;47.510;8.680;2023-05-03T05:25:24;97729.09;;;12.47;55.04
55171;BME280;41060;47.510;8.680;2023-05-03T05:27:51;97739.13;;;12.54;55.13
55171;BME280;41060;47.510;8.680;2023-05-03T05:30:18;97740.34;;;12.50;54.88
55171;BME280;41060;47.510;8.680;2023-05-03T05:32:45;97735.41;;;12.46;55.50
55171;BME280;41060;47.510;8.680;2023-05-03T05:35:11;97749.28;;;12.38;55.68
55171;BME280;41060;47.510;8.680;2023-05-03T05:37:40;97747.69;;;12.36;56.13
55171;BME280;41060;47.510;8.680;2023-05-03T05:40:08;97742.28;;;12.48;56.22
55171;BME280;41060;47.510;8.680;2023-05-03T05:42:36;97741.94;;;12.53;55.52
55171;BME280;41060;47.510;8.680;2023-05-03T05:45:04;97746.88;;;12.57;55.46
55171;BME280;41060;47.510;8.680;2023-05-03T05:47:34;97740.47;;;12.49;56.54
55171;BME280;41060;47.510;8.680;2023-05-03T05:50:00;97733.72;;;12.56;55.46
55171;BME280;41060;47.510;8.680;2023-05-03T05:52:27;97737.47;;;12.53;55.31
55171;BME280;41060;47.510;8.680;2023-05-03T05:54:55;97744.19;;;12.35;55.70
55171;BME280;41060;47.510;8.680;2023-05-03T05:57:21;97741.69;;;12.67;55.43
55171;BME280;41060;47.510;8.680;2023-05-03T05:59:49;97738.56;;;12.73;54.46
55171;BME280;41060;47.510;8.680;2023-05-03T06:02:17;97737.47;;;12.64;55.26
55171;BME280;41060;47.510;8.680;2023-05-03T06:04:47;97729.97;;;12.92;54.45
55171;BME280;41060;47.510;8.680;2023-05-03T06:07:14;97730.81;;;13.15;53.28
55171;BME280;41060;47.510;8.680;2023-05-03T06:09:42;97724.63;;;13.36;53.00
55171;BME280;41060;47.510;8.680;2023-05-03T06:12:08;97730.66;;;13.50;52.60
55171;BME280;41060;47.510;8.680;2023-05-03T06:14:35;97729.19;;;13.57;51.77
55171;BME280;41060;47.510;8.680;2023-05-03T06:17:04;97731.06;;;13.66;52.10
55171;BME280;41060;47.510;8.680;2023-05-03T06:19:30;97734.72;;;13.65;52.59
55171;BME280;41060;47.510;8.680;2023-05-03T06:21:57;97729.66;;;13.51;52.43
55171;BME280;41060;47.510;8.680;2023-05-03T06:24:24;97729.19;;;13.46;52.88
55171;BME280;41060;47.510;8.680;2023-05-03T06:26:55;97731.00;;;13.56;53.12
55171;BME280;41060;47.510;8.680;2023-05-03T06:29:22;97732.59;;;13.48;53.19
55171;BME280;41060;47.510;8.680;2023-05-03T06:31:53;97725.69;;;13.45;53.49
55171;BME280;41060;47.510;8.680;2023-05-03T06:34:21;97721.19;;;13.57;52.36
55171;BME280;41060;47.510;8.680;2023-05-03T06:36:48;97728.06;;;13.59;53.16
55171;BME280;41060;47.510;8.680;2023-05-03T06:39:15;97689.50;;;13.54;51.82
55171;BME280;41060;47.510;8.680;2023-05-03T06:41:42;97730.09;;;13.67;52.76
55171;BME280;41060;47.510;8.680;2023-05-03T06:44:09;97725.41;;;13.59;53.01
55171;BME280;41060;47.510;8.680;2023-05-03T06:46:36;97727.09;;;13.17;53.67
55171;BME280;41060;47.510;8.680;2023-05-03T06:49:03;97733.72;;;13.23;54.14
55171;BME280;41060;47.510;8.680;2023-05-03T06:51:30;97736.28;;;13.13;54.33
55171;BME280;41060;47.510;8.680;2023-05-03T06:53:59;97727.13;;;13.06;55.03
55171;BME280;41060;47.510;8.680;2023-05-03T06:56:31;97733.03;;;13.10;55.17
55171;BME280;41060;47.510;8.680;2023-05-03T06:58:58;97733.47;;;13.26;54.92
55171;BME280;41060;47.510;8.680;2023-05-03T07:01:25;97734.69;;;13.33;54.15
55171;BME280;41060;47.510;8.680;2023-05-03T07:03:51;97731.91;;;13.23;54.00
55171;BME280;41060;47.510;8.680;2023-05-03T07:06:18;97727.69;;;13.10;54.93
55171;BME280;41060;47.510;8.680;2023-05-03T07:08:48;97730.34;;;13.21;55.23
55171;BME280;41060;47.510;8.680;2023-05-03T07:11:15;97725.38;;;13.16;54.85
55171;BME280;41060;47.510;8.680;2023-05-03T07:13:42;97726.34;;;13.15;55.39
55171;BME280;41060;47.510;8.680;2023-05-03T07:16:08;97718.66;;;13.12;54.40
55171;BME280;41060;47.510;8.680;2023-05-03T07:18:35;97715.22;;;13.32;53.91
55171;BME280;41060;47.510;8.680;2023-05-03T07:21:05;97716.72;;;13.57;53.98
55171;BME280;41060;47.510;8.680;2023-05-03T07:23:31;97711.47;;;13.35;53.82
55171;BME280;41060;47.510;8.680;2023-05-03T07:25:59;97719.00;;;13.51;53.64
55171;BME280;41060;47.510;8.680;2023-05-03T07:28:26;97717.41;;;13.70;53.03
55171;BME280;41060;47.510;8.680;2023-05-03T07:30:53;97710.38;;;13.69;52.88
55171;BME280;41060;47.510;8.680;2023-05-03T07:33:22;97708.66;;;13.79;52.70
55171;BME280;41060;47.510;8.680;2023-05-03T07:35:50;97706.88;;;13.69;53.08
55171;BME280;41060;47.510;8.680;2023-05-03T07:38:16;97708.56;;;13.70;53.21
55171;BME280;41060;47.510;8.680;2023-05-03T07:40:43;97697.19;;;13.68;52.66
55171;BME280;41060;47.510;8.680;2023-05-03T07:43:11;97698.00;;;13.79;52.10
55171;BME280;41060;47.510;8.680;2023-05-03T07:45:41;97700.81;;;13.67;52.34
55171;BME280;41060;47.510;8.680;2023-05-03T07:48:07;97701.16;;;13.73;52.45
55171;BME280;41060;47.510;8.680;2023-05-03T07:50:34;97695.34;;;13.79;51.94
55171;BME280;41060;47.510;8.680;2023-05-03T07:53:01;97683.72;;;13.49;53.17
55171;BME280;41060;47.510;8.680;2023-05-03T07:55:27;97686.97;;;13.84;51.83
55171;BME280;41060;47.510;8.680;2023-05-03T07:57:57;97681.47;;;14.17;51.18
55171;BME280;41060;47.510;8.680;2023-05-03T08:00:25;97683.19;;;14.39;50.76
55171;BME280;41060;47.510;8.680;2023-05-03T08:02:52;97669.44;;;14.44;50.19
55171;BME280;41060;47.510;8.680;2023-05-03T08:05:21;97671.63;;;14.60;49.81
55171;BME280;41060;47.510;8.680;2023-05-03T08:07:47;97671.16;;;14.54;49.54
55171;BME280;41060;47.510;8.680;2023-05-03T08:10:14;97641.97;;;14.43;49.50
55171;BME280;41060;47.510;8.680;2023-05-03T08:12:44;97652.00;;;14.30;49.07
55171;BME280;41060;47.510;8.680;2023-05-03T08:15:12;97666.41;;;14.58;49.45
55171;BME280;41060;47.510;8.680;2023-05-03T08:17:41;97663.72;;;14.48;49.03
55171;BME280;41060;47.510;8.680;2023-05-03T08:20:08;97664.56;;;14.49;49.10
55171;BME280;41060;47.510;8.680;2023-05-03T08:22:35;97670.47;;;14.52;49.40
55171;BME280;41060;47.510;8.680;2023-05-03T08:25:02;97672.28;;;14.82;49.18
55171;BME280;41060;47.510;8.680;2023-05-03T08:27:32;97673.81;;;14.85;49.01
55171;BME280;41060;47.510;8.680;2023-05-03T08:29:59;97673.13;;;14.83;48.42
55171;BME280;41060;47.510;8.680;2023-05-03T08:32:25;97664.84;;;14.86;48.73
55171;BME280;41060;47.510;8.680;2023-05-03T08:34:54;97664.63;;;15.08;48.53
55171;BME280;41060;47.510;8.680;2023-05-03T08:37:21;97671.72;;;15.19;48.19
55171;BME280;41060;47.510;8.680;2023-05-03T08:39:48;97663.97;;;15.16;48.65
55171;BME280;41060;47.510;8.680;2023-05-03T08:42:15;97667.06;;;15.11;48.73
55171;BME280;41060;47.510;8.680;2023-05-03T08:44:44;97663.13;;;15.15;47.70
55171;BME280;41060;47.510;8.680;2023-05-03T08:47:13;97659.50;;;15.26;48.15
55171;BME280;41060;47.510;8.680;2023-05-03T08:49:40;97658.25;;;15.30;48.67
55171;BME280;41060;47.510;8.680;2023-05-03T08:52:13;97655.41;;;15.12;49.23
55171;BME280;41060;47.510;8.680;2023-05-03T08:54:40;97662.75;;;15.39;48.72
55171;BME280;41060;47.510;8.680;2023-05-03T08:57:09;97648.28;;;15.61;48.56
55171;BME280;41060;47.510;8.680;2023-05-03T08:59:47;97652.38;;;15.84;46.94
55171;BME280;41060;47.510;8.680;2023-05-03T09:02:14;97615.53;;;15.88;46.60
55171;BME280;41060;47.510;8.680;2023-05-03T09:04:42;97639.81;;;16.04;46.72
55171;BME280;41060;47.510;8.680;2023-05-03T09:07:09;97658.81;;;16.20;46.88
55171;BME280;41060;47.510;8.680;2023-05-03T09:09:37;97631.94;;;16.31;45.99
55171;BME280;41060;47.510;8.680;2023-05-03T09:12:04;97645.22;;;16.50;45.63
55171;BME280;41060;47.510;8.680;2023-05-03T09:14:40;97649.69;;;16.60;46.56
55171;BME280;41060;47.510;8.680;2023-05-03T09:17:13;97642.56;;;16.50;46.14
55171;BME280;41060;47.510;8.680;2023-05-03T09:19:50;97653.00;;;16.71;45.46
55171;BME280;41060;47.510;8.680;2023-05-03T09:22:18;97652.94;;;16.91;45.53
55171;BME280;41060;47.510;8.680;2023-05-03T09:24:52;97649.28;;;17.19;45.53
55171;BME280;41060;47.510;8.680;2023-05-03T09:27:23;97648.94;;;17.49;45.42
55171;BME280;41060;47.510;8.680;2023-05-03T09:29:50;97649.16;;;17.74;44.96
55171;BME280;41060;47.510;8.680;2023-05-03T09:32:17;97639.69;;;17.79;44.41
55171;BME280;41060;47.510;8.680;2023-05-03T09:34:44;97642.28;;;18.07;44.70
55171;BME280;41060;47.510;8.680;2023-05-03T09:37:11;97646.50;;;18.09;43.40
55171;BME280;41060;47.510;8.680;2023-05-03T09:39:39;97642.84;;;18.18;43.39
55171;BME280;41060;47.510;8.680;2023-05-03T09:42:13;97639.09;;;18.29;43.34
55171;BME280;41060;47.510;8.680;2023-05-03T09:44:41;97636.03;;;18.24;42.82
55171;BME280;41060;47.510;8.680;2023-05-03T09:47:09;97635.44;;;18.12;42.79
55171;BME280;41060;47.510;8.680;2023-05-03T09:49:38;97640.78;;;17.86;43.91
55171;BME280;41060;47.510;8.680;2023-05-03T09:52:06;97631.19;;;18.01;43.64
55171;BME280;41060;47.510;8.680;2023-05-03T09:54:34;97638.91;;;18.04;44.64
55171;BME280;41060;47.510;8.680;2023-05-03T09:57:01;97636.69;;;18.26;45.17
55171;BME280;41060;47.510;8.680;2023-05-03T09:59:31;97643.16;;;18.41;44.64
55171;BME280;41060;47.510;8.680;2023-05-03T10:02:00;97629.66;;;18.51;44.18
55171;BME280;41060;47.510;8.680;2023-05-03T10:04:29;97638.59;;;18.33;44.82
55171;BME280;41060;47.510;8.680;2023-05-03T10:07:03;97631.28;;;18.18;43.04
55171;BME280;41060;47.510;8.680;2023-05-03T10:09:35;97632.19;;;18.26;44.22
55171;BME280;41060;47.510;8.680;2023-05-03T10:12:07;97636.25;;;18.30;44.01
55171;BME280;41060;47.510;8.680;2023-05-03T10:14:35;97636.88;;;18.24;43.81
55171;BME280;41060;47.510;8.680;2023-05-03T10:17:03;97636.31;;;18.38;44.42
55171;BME280;41060;47.510;8.680;2023-05-03T10:19:35;97624.25;;;18.68;42.82
55171;BME280;41060;47.510;8.680;2023-05-03T10:22:04;97615.06;;;18.19;42.65
55171;BME280;41060;47.510;8.680;2023-05-03T10:24:32;97621.66;;;18.33;43.71
55171;BME280;41060;47.510;8.680;2023-05-03T10:27:00;97623.31;;;18.86;41.56
55171;BME280;41060;47.510;8.680;2023-05-03T10:29:47;97613.00;;;18.99;40.60
55171;BME280;41060;47.510;8.680;2023-05-03T10:32:30;97617.75;;;19.21;40.77
55171;BME280;41060;47.510;8.680;2023-05-03T10:35:01;97610.06;;;19.42;40.16
55171;BME280;41060;47.510;8.680;2023-05-03T10:37:28;97612.22;;;19.39;39.64
55171;BME280;41060;47.510;8.680;2023-05-03T10:39:55;97610.09;;;18.92;39.67
55171;BME280;41060;47.510;8.680;2023-05-03T10:42:23;97609.63;;;18.97;40.04
55171;BME280;41060;47.510;8.680;2023-05-03T10:44:53;97612.19;;;18.72;40.28
55171;BME280;41060;47.510;8.680;2023-05-03T10:47:21;97604.38;;;18.87;39.20
55171;BME280;41060;47.510;8.680;2023-05-03T10:52:49;97597.59;;;19.17;39.63
55171;BME280;41060;47.510;8.680;2023-05-03T10:55:17;97606.00;;;19.30;39.32
55171;BME280;41060;47.510;8.680;2023-05-03T10:57:45;97595.66;;;19.43;39.38
55171;BME280;41060;47.510;8.680;2023-05-03T11:00:18;97582.38;;;19.42;39.94
55171;BME280;41060;47.510;8.680;2023-05-03T11:03:07;97595.94;;;19.24;38.77
55171;BME280;41060;47.510;8.680;2023-05-03T11:05:38;97591.66;;;19.55;37.95
55171;BME280;41060;47.510;8.680;2023-05-03T11:08:13;97601.06;;;19.76;39.60
55171;BME280;41060;47.510;8.680;2023-05-03T11:10:42;97597.34;;;19.61;38.22
55171;BME280;41060;47.510;8.680;2023-05-03T11:13:09;97594.69;;;19.93;38.59
55171;BME280;41060;47.510;8.680;2023-05-03T11:15:38;97597.84;;;19.96;36.89
55171;BME280;41060;47.510;8.680;2023-05-03T11:18:06;97587.44;;;20.02;38.00
55171;BME280;41060;47.510;8.680;2023-05-03T11:20:33;97600.38;;;19.90;37.15
55171;BME280;41060;47.510;8.680;2023-05-03T11:23:00;97588.78;;;19.81;38.11
55171;BME280;41060;47.510;8.680;2023-05-03T11:25:27;97596.50;;;20.09;37.35
55171;BME280;41060;47.510;8.680;2023-05-03T11:27:54;97586.41;;;20.27;36.85
55171;BME280;41060;47.510;8.680;2023-05-03T11:30:20;97586.66;;;20.64;37.41
55171;BME280;41060;47.510;8.680;2023-05-03T11:32:49;97587.38;;;20.89;35.99
55171;BME280;41060;47.510;8.680;2023-05-03T11:35:15;97586.63;;;21.42;35.55
55171;BME280;41060;47.510;8.680;2023-05-03T11:37:43;97579.28;;;21.51;35.53
55171;BME280;41060;47.510;8.680;2023-05-03T11:40:14;97578.53;;;21.42;34.78
55171;BME280;41060;47.510;8.680;2023-05-03T11:42:53;97574.50;;;21.38;34.08
55171;BME280;41060;47.510;8.680;2023-05-03T11:45:22;97576.88;;;21.10;35.64
55171;BME280;41060;47.510;8.680;2023-05-03T11:47:51;97566.38;;;20.85;36.27
55171;BME280;41060;47.510;8.680;2023-05-03T11:50:18;97577.94;;;20.93;35.30
55171;BME280;41060;47.510;8.680;2023-05-03T11:52:45;97569.06;;;21.24;34.96
55171;BME280;41060;47.510;8.680;2023-05-03T11:55:12;97566.25;;;21.63;33.67
55171;BME280;41060;47.510;8.680;2023-05-03T11:57:40;97555.06;;;21.74;32.54
55171;BME280;41060;47.510;8.680;2023-05-03T12:00:12;97558.50;;;22.05;32.71
55171;BME280;41060;47.510;8.680;2023-05-03T12:02:41;97553.38;;;22.25;33.13
55171;BME280;41060;47.510;8.680;2023-05-03T12:05:10;97563.00;;;21.90;32.24
55171;BME280;41060;47.510;8.680;2023-05-03T12:07:37;97545.81;;;21.68;33.18
55171;BME280;41060;47.510;8.680;2023-05-03T12:10:14;97558.16;;;21.17;33.83
55171;BME280;41060;47.510;8.680;2023-05-03T12:12:56;97544.47;;;21.49;34.61
55171;BME280;41060;47.510;8.680;2023-05-03T12:15:27;97532.81;;;21.95;33.26
55171;BME280;41060;47.510;8.680;2023-05-03T12:17:57;97533.13;;;22.29;32.85
55171;BME280;41060;47.510;8.680;2023-05-03T12:20:26;97545.16;;;22.56;33.85
55171;BME280;41060;47.510;8.680;2023-05-03T12:22:56;97539.41;;;22.95;32.95
55171;BME280;41060;47.510;8.680;2023-05-03T12:25:23;97526.66;;;23.03;30.35
55171;BME280;41060;47.510;8.680;2023-05-03T12:27:51;97531.97;;;23.12;30.85
55171;BME280;41060;47.510;8.680;2023-05-03T12:30:18;97530.47;;;22.94;32.40
55171;BME280;41060;47.510;8.680;2023-05-03T12:32:45;97535.25;;;22.78;31.86
55171;BME280;41060;47.510;8.680;2023-05-03T12:35:12;97527.97;;;22.93;31.91
55171;BME280;41060;47.510;8.680;2023-05-03T12:37:40;97533.06;;;22.67;31.98
55171;BME280;41060;47.510;8.680;2023-05-03T12:40:08;97538.06;;;22.40;31.82
55171;BME280;41060;47.510;8.680;2023-05-03T12:42:34;97528.66;;;22.80;31.79
55171;BME280;41060;47.510;8.680;2023-05-03T12:45:01;97532.41;;;23.15;30.62
55171;BME280;41060;47.510;8.680;2023-05-03T12:47:28;97529.28;;;23.54;31.14
55171;BME280;41060;47.510;8.680;2023-05-03T12:49:55;97525.91;;;23.73;30.00
55171;BME280;41060;47.510;8.680;2023-05-03T12:52:22;97525.84;;;23.88;29.85
55171;BME280;41060;47.510;8.680;2023-05-03T12:54:52;97527.69;;;24.09;29.83
55171;BME280;41060;47.510;8.680;2023-05-03T12:57:18;97525.34;;;24.34;28.94
55171;BME280;41060;47.510;8.680;2023-05-03T12:59:46;97517.59;;;24.24;29.98
55171;BME280;41060;47.510;8.680;2023-05-03T13:02:17;97509.00;;;23.65;29.93
55171;BME280;41060;47.510;8.680;2023-05-03T13:04:44;97512.03;;;23.76;29.65
55171;BME280;41060;47.510;8.680;2023-05-03T13:07:11;97519.63;;;23.88;29.65
55171;BME280;41060;47.510;8.680;2023-05-03T13:09:38;97519.03;;;23.71;29.72